createdAt,value
2022-12-29T00:02:20.799Z,19.00
2022-12-29T00:04:53.967Z,20.55
2022-12-29T00:07:26.747Z,18.42
2022-12-29T00:09:59.755Z,17.75
2022-12-29T00:12:34.298Z,18.23
2022-12-29T00:15:25.254Z,19.98
2022-12-29T00:17:58.045Z,17.62
2022-12-29T00:20:48.480Z,18.67
2022-12-29T00:23:40.490Z,16.57
2022-12-29T00:26:36.432Z,15.83
2022-12-29T00:29:28.989Z,19.87
2022-12-29T00:32:19.702Z,16.52
2022-12-29T00:35:10.469Z,13.15
2022-12-29T00:38:05.610Z,19.35
2022-12-29T00:40:57.234Z,16.65
2022-12-29T00:43:47.973Z,21.48
2022-12-29T00:46:20.733Z,17.77
2022-12-29T00:49:12.296Z,16.82
2022-12-29T00:51:45.617Z,18.07
2022-12-29T00:54:19.186Z,12.37
2022-12-29T00:56:54.198Z,14.85
2022-12-29T00:59:27.619Z,18.40
2022-12-29T01:02:02.230Z,16.30
2022-12-29T01:04:35.406Z,12.27
2022-12-29T01:07:09.047Z,14.33
2022-12-29T01:10:00.886Z,16.17
2022-12-29T01:12:46.489Z,16.85
2022-12-29T01:15:19.451Z,20.32
2022-12-29T01:17:53.938Z,19.27
2022-12-29T01:20:28.378Z,18.65
2022-12-29T01:23:02.507Z,16.45
2022-12-29T01:25:35.360Z,19.02
2022-12-29T01:28:09.561Z,19.20
2022-12-29T01:30:43.974Z,17.20
2022-12-29T01:33:18.827Z,19.70
2022-12-29T01:35:51.547Z,16.20
2022-12-29T01:38:24.476Z,14.95
2022-12-29T01:40:57.783Z,16.30
2022-12-29T01:43:55.070Z,16.90
2022-12-29T01:46:43.829Z,18.05
2022-12-29T01:49:26.306Z,18.00
2022-12-29T01:52:02.667Z,16.57
2022-12-29T01:54:46.292Z,18.73
2022-12-29T01:57:27.765Z,20.45
2022-12-29T02:00:10.921Z,17.10
2022-12-29T02:02:53.356Z,19.98
2022-12-29T02:06:09.865Z,19.02
2022-12-29T02:08:43.677Z,15.23
2022-12-29T02:11:17.088Z,15.00
2022-12-29T02:13:50.025Z,13.32
2022-12-29T02:16:40.102Z,15.80
2022-12-29T02:19:38.900Z,22.85
2022-12-29T02:22:31.803Z,18.20
2022-12-29T02:25:17.656Z,15.72
2022-12-29T02:28:28.570Z,18.07
2022-12-29T02:31:23.986Z,19.50
2022-12-29T02:34:16.746Z,20.57
2022-12-29T02:37:07.593Z,19.40
2022-12-29T02:40:03.217Z,24.27
2022-12-29T02:42:50.082Z,20.12
2022-12-29T02:45:36.472Z,26.02
2022-12-29T02:48:34.069Z,23.75
2022-12-29T02:51:32.656Z,24.55
2022-12-29T02:54:24.471Z,24.18
2022-12-29T02:56:57.430Z,22.82
2022-12-29T02:59:30.489Z,21.45
2022-12-29T03:02:25.566Z,19.02
2022-12-29T03:05:24.485Z,28.50
2022-12-29T03:08:27.372Z,22.20
2022-12-29T03:11:07.159Z,23.20
2022-12-29T03:14:07.656Z,26.75
2022-12-29T03:16:52.882Z,23.77
2022-12-29T03:19:36.965Z,22.52
2022-12-29T03:22:32.073Z,20.45
2022-12-29T03:25:26.030Z,31.82
2022-12-29T03:28:10.458Z,22.30
2022-12-29T03:30:45.924Z,21.12
2022-12-29T03:33:26.010Z,24.47
2022-12-29T03:36:08.288Z,24.07
2022-12-29T03:39:02.498Z,19.95
2022-12-29T03:41:36.713Z,26.67
2022-12-29T03:44:10.801Z,21.87
2022-12-29T03:46:44.094Z,27.20
2022-12-29T03:51:52.080Z,26.20
2022-12-29T03:54:25.164Z,21.27
2022-12-29T03:56:58.272Z,22.70
2022-12-29T03:59:33.485Z,22.95
2022-12-29T04:02:07.631Z,23.45
2022-12-29T04:04:40.766Z,22.65
2022-12-29T04:07:13.611Z,24.60
2022-12-29T04:09:47.267Z,21.85
2022-12-29T04:12:21.986Z,26.05
2022-12-29T04:14:54.834Z,20.37
2022-12-29T04:17:28.031Z,25.50
2022-12-29T04:20:02.422Z,21.70
2022-12-29T04:22:36.809Z,20.62
2022-12-29T04:25:10.592Z,28.95
2022-12-29T04:27:43.537Z,19.20
2022-12-29T04:30:21.364Z,24.90
2022-12-29T04:32:55.944Z,22.15
2022-12-29T04:35:28.946Z,23.98
2022-12-29T04:38:01.752Z,30.27
2022-12-29T04:40:34.903Z,24.12
2022-12-29T04:43:08.031Z,21.93
2022-12-29T04:45:48.725Z,22.95
2022-12-29T04:48:32.029Z,27.60
2022-12-29T04:51:06.661Z,27.22
2022-12-29T04:53:41.266Z,26.77
2022-12-29T04:56:14.521Z,27.90
2022-12-29T04:58:47.647Z,28.38
2022-12-29T05:01:20.569Z,27.42
2022-12-29T05:03:54.507Z,26.95
2022-12-29T05:06:28.847Z,29.67
2022-12-29T05:09:01.551Z,25.95
2022-12-29T05:11:35.307Z,27.10
2022-12-29T05:14:08.573Z,29.32
2022-12-29T05:16:42.242Z,24.32
2022-12-29T05:19:15.398Z,33.50
2022-12-29T05:21:48.532Z,23.70
2022-12-29T05:24:21.786Z,20.90
2022-12-29T05:26:55.490Z,19.32
2022-12-29T05:29:30.120Z,23.73
2022-12-29T05:32:04.210Z,23.92
2022-12-29T05:34:37.400Z,23.22
2022-12-29T05:37:10.797Z,22.50
2022-12-29T05:39:45.500Z,21.30
2022-12-29T05:42:20.017Z,20.55
2022-12-29T05:45:11.870Z,20.88
2022-12-29T05:47:49.154Z,28.25
2022-12-29T05:50:23.792Z,22.27
2022-12-29T05:53:04.719Z,21.35
2022-12-29T05:55:40.010Z,20.88
2022-12-29T05:58:12.797Z,21.23
2022-12-29T06:00:46.807Z,22.40
2022-12-29T06:03:20.570Z,22.17
2022-12-29T06:05:54.007Z,20.65
2022-12-29T06:08:28.408Z,19.82
2022-12-29T06:11:01.752Z,20.97
2022-12-29T06:13:36.832Z,21.50
2022-12-29T06:16:10.407Z,26.00
2022-12-29T06:18:45.185Z,18.07
2022-12-29T06:21:18.731Z,18.37
2022-12-29T06:23:52.419Z,15.05
2022-12-29T06:26:26.195Z,23.12
2022-12-29T06:28:59.749Z,16.75
2022-12-29T06:31:33.523Z,18.25
2022-12-29T06:34:08.664Z,16.55
2022-12-29T06:36:42.911Z,17.40
2022-12-29T06:39:16.856Z,19.02
2022-12-29T06:41:56.662Z,21.07
2022-12-29T06:44:41.753Z,20.43
2022-12-29T06:49:48.493Z,22.93
2022-12-29T06:52:21.695Z,17.17
2022-12-29T06:54:54.949Z,25.95
2022-12-29T07:00:01.386Z,21.20
2022-12-29T07:05:08.978Z,24.87
2022-12-29T07:07:42.177Z,22.42
2022-12-29T07:10:15.913Z,23.30
2022-12-29T07:12:49.567Z,19.98
2022-12-29T07:15:23.186Z,19.45
2022-12-29T07:17:56.338Z,19.98
2022-12-29T07:20:29.455Z,21.60
2022-12-29T07:23:02.619Z,20.40
2022-12-29T07:25:37.253Z,20.00
2022-12-29T07:28:10.716Z,21.40
2022-12-29T07:30:44.042Z,21.40
2022-12-29T07:33:17.073Z,26.05
2022-12-29T07:35:51.154Z,17.77
2022-12-29T07:38:24.207Z,18.17
2022-12-29T07:41:01.316Z,16.27
2022-12-29T07:43:34.623Z,19.75
2022-12-29T07:46:55.781Z,17.62
2022-12-29T07:49:00.329Z,17.92
2022-12-29T07:51:34.084Z,17.07
2022-12-29T07:54:07.387Z,21.27
2022-12-29T07:56:40.320Z,22.00
2022-12-29T07:59:14.947Z,21.45
2022-12-29T08:01:47.796Z,21.73
2022-12-29T08:04:20.867Z,18.00
2022-12-29T08:06:53.789Z,19.27
2022-12-29T08:09:27.132Z,18.30
2022-12-29T08:12:00.134Z,19.50
2022-12-29T08:14:33.428Z,17.90
2022-12-29T08:17:06.790Z,16.12
2022-12-29T08:19:41.284Z,18.83
2022-12-29T08:26:09.641Z,13.75
2022-12-29T08:28:42.686Z,14.58
2022-12-29T08:31:15.502Z,14.40
2022-12-29T08:33:48.507Z,14.20
2022-12-29T08:36:22.385Z,18.25
2022-12-29T08:38:55.474Z,15.00
2022-12-29T08:41:28.337Z,15.98
2022-12-29T08:44:01.189Z,16.07
2022-12-29T08:46:34.083Z,15.25
2022-12-29T08:49:06.919Z,17.48
2022-12-29T08:51:41.033Z,15.23
2022-12-29T08:54:14.029Z,16.93
2022-12-29T08:56:46.982Z,13.75
2022-12-29T08:59:21.446Z,12.37
2022-12-29T09:01:54.660Z,13.28
2022-12-29T09:04:29.650Z,17.50
2022-12-29T09:07:02.875Z,19.48
2022-12-29T09:09:36.323Z,14.13
2022-12-29T09:12:10.886Z,18.75
2022-12-29T09:14:44.354Z,14.87
2022-12-29T09:17:35.239Z,18.17
2022-12-29T09:20:09.998Z,16.30
2022-12-29T09:22:43.310Z,12.07
2022-12-29T09:25:16.686Z,15.30
2022-12-29T09:27:50.315Z,16.37
2022-12-29T09:30:25.012Z,15.80
2022-12-29T09:32:58.063Z,13.98
2022-12-29T09:35:30.838Z,17.95
2022-12-29T09:38:03.851Z,17.25
2022-12-29T09:40:36.930Z,15.50
2022-12-29T09:43:42.724Z,14.23
2022-12-29T09:46:22.934Z,16.62
2022-12-29T09:49:12.381Z,14.15
2022-12-29T09:51:49.956Z,12.53
2022-12-29T09:55:11.967Z,10.32
2022-12-29T09:57:50.676Z,12.25
2022-12-29T10:00:27.600Z,14.80
2022-12-29T10:03:04.318Z,15.60
2022-12-29T10:05:54.378Z,9.63
2022-12-29T10:08:46.904Z,9.33
2022-12-29T10:11:39.967Z,11.20
2022-12-29T10:14:34.001Z,11.20
2022-12-29T10:17:37.786Z,12.18
2022-12-29T10:20:42.573Z,12.05
2022-12-29T10:23:44.611Z,10.72
2022-12-29T10:26:27.072Z,21.48
2022-12-29T10:29:25.181Z,9.30
2022-12-29T10:32:02.002Z,8.78
2022-12-29T10:34:47.915Z,10.20
2022-12-29T10:38:03.198Z,10.08
2022-12-29T10:41:00.069Z,11.50
2022-12-29T10:43:40.789Z,7.35
2022-12-29T10:46:26.320Z,8.83
2022-12-29T10:48:59.395Z,8.25
2022-12-29T10:51:37.040Z,6.87
2022-12-29T10:54:20.250Z,5.87
2022-12-29T10:57:28.725Z,7.87
2022-12-29T11:00:01.983Z,5.60
2022-12-29T11:02:55.572Z,8.78
2022-12-29T11:05:54.024Z,9.05
2022-12-29T11:08:32.524Z,8.10
2022-12-29T11:11:11.765Z,8.33
2022-12-29T11:13:55.270Z,8.28
2022-12-29T11:16:33.354Z,10.10
2022-12-29T11:19:06.877Z,8.10
2022-12-29T11:21:45.908Z,8.50
2022-12-29T11:24:29.191Z,11.83
2022-12-29T11:27:26.779Z,8.18
2022-12-29T11:29:59.741Z,8.93
2022-12-29T11:32:33.188Z,10.48
2022-12-29T11:35:07.786Z,13.13
2022-12-29T11:37:43.657Z,7.10
2022-12-29T11:40:22.252Z,6.25
2022-12-29T11:42:59.888Z,8.50
2022-12-29T11:45:36.656Z,8.38
2022-12-29T11:48:13.344Z,10.15
2022-12-29T11:50:52.877Z,5.67
2022-12-29T11:53:29.625Z,6.90
2022-12-29T11:56:10.426Z,10.25
2022-12-29T11:58:43.318Z,11.18
2022-12-29T12:01:27.081Z,9.85
2022-12-29T12:04:08.051Z,11.18
2022-12-29T12:07:15.374Z,9.35
2022-12-29T12:10:07.883Z,10.18
2022-12-29T12:12:46.218Z,8.58
2022-12-29T12:15:24.096Z,7.10
2022-12-29T12:18:15.111Z,8.33
2022-12-29T12:20:58.752Z,6.17
2022-12-29T12:24:06.512Z,9.73
2022-12-29T12:27:00.547Z,10.35
2022-12-29T12:29:56.681Z,9.43
2022-12-29T12:32:50.792Z,11.53
2022-12-29T12:35:37.232Z,8.70
2022-12-29T12:38:32.453Z,12.35
2022-12-29T12:41:24.585Z,9.05
2022-12-29T12:44:05.153Z,7.42
2022-12-29T12:47:08.753Z,7.78
2022-12-29T12:50:06.549Z,9.40
2022-12-29T12:53:17.326Z,10.13
2022-12-29T12:56:03.818Z,9.70
2022-12-29T12:59:10.013Z,10.90
2022-12-29T13:02:05.808Z,9.15
2022-12-29T13:04:58.770Z,7.35
2022-12-29T13:08:09.345Z,10.60
2022-12-29T13:11:26.463Z,9.00
2022-12-29T13:14:16.109Z,8.15
2022-12-29T13:16:56.307Z,6.42
2022-12-29T13:19:54.182Z,7.80
2022-12-29T13:22:43.922Z,9.18
2022-12-29T13:25:45.315Z,9.38
2022-12-29T13:28:26.026Z,9.70
2022-12-29T13:31:22.846Z,11.00
2022-12-29T13:34:12.198Z,8.60
2022-12-29T13:37:06.965Z,8.93
2022-12-29T13:39:44.792Z,8.03
2022-12-29T13:42:18.727Z,9.75
2022-12-29T13:45:08.152Z,9.03
2022-12-29T13:47:51.139Z,11.75
2022-12-29T13:50:27.821Z,12.53
2022-12-29T13:53:28.852Z,8.55
2022-12-29T13:56:38.312Z,15.68
2022-12-29T13:59:39.289Z,10.35
2022-12-29T14:02:22.932Z,8.95
2022-12-29T14:05:02.400Z,14.73
2022-12-29T14:07:42.084Z,12.63
2022-12-29T14:10:42.419Z,12.95
2022-12-29T14:13:23.530Z,10.90
2022-12-29T14:15:59.495Z,12.07
2022-12-29T14:18:35.366Z,10.53
2022-12-29T14:21:18.336Z,14.60
2022-12-29T14:23:55.244Z,13.75
2022-12-29T14:26:37.288Z,27.52
2022-12-29T14:29:33.242Z,28.35
2022-12-29T14:32:28.505Z,20.48
2022-12-29T14:35:05.067Z,13.75
2022-12-29T14:37:40.357Z,18.17
2022-12-29T14:40:24.394Z,21.33
2022-12-29T14:42:58.860Z,21.07
2022-12-29T14:48:25.576Z,14.90
2022-12-29T14:50:58.941Z,17.62
2022-12-29T14:53:51.776Z,13.58
2022-12-29T14:56:32.461Z,13.80
2022-12-29T14:59:06.634Z,21.70
2022-12-29T15:01:50.351Z,21.65
2022-12-29T15:04:29.687Z,14.90
2022-12-29T15:07:04.815Z,20.72
2022-12-29T15:09:50.093Z,12.88
2022-12-29T15:12:50.369Z,13.75
2022-12-29T15:15:26.997Z,16.40
2022-12-29T15:17:59.909Z,17.32
2022-12-29T15:20:34.519Z,16.90
2022-12-29T15:23:15.639Z,12.13
2022-12-29T15:25:59.062Z,14.45
2022-12-29T15:28:45.857Z,10.45
2022-12-29T15:31:30.130Z,14.75
2022-12-29T15:34:14.632Z,12.50
2022-12-29T15:36:47.509Z,11.00
2022-12-29T15:39:33.905Z,13.72
2022-12-29T15:42:31.261Z,12.80
2022-12-29T15:45:11.808Z,17.37
2022-12-29T15:47:48.713Z,12.05
2022-12-29T15:50:31.910Z,14.10
2022-12-29T15:53:05.880Z,17.12
2022-12-29T15:55:42.389Z,14.78
2022-12-29T15:58:22.818Z,12.58
2022-12-29T16:01:01.168Z,9.55
2022-12-29T16:03:38.464Z,13.03
2022-12-29T16:06:30.596Z,18.73
2022-12-29T16:09:12.799Z,17.60
2022-12-29T16:11:51.596Z,12.03
2022-12-29T16:14:34.951Z,15.50
2022-12-29T16:17:08.567Z,15.85
2022-12-29T16:19:43.711Z,16.02
2022-12-29T16:22:26.717Z,14.23
2022-12-29T16:25:05.132Z,13.98
2022-12-29T16:27:44.391Z,14.03
2022-12-29T16:30:33.503Z,16.20
2022-12-29T16:33:06.463Z,15.10
2022-12-29T16:35:46.872Z,15.70
2022-12-29T16:38:25.101Z,16.15
2022-12-29T16:41:05.537Z,17.52
2022-12-29T16:43:41.471Z,17.95
2022-12-29T16:46:30.017Z,15.03
2022-12-29T16:49:03.094Z,15.35
2022-12-29T16:51:38.480Z,14.03
2022-12-29T16:54:18.937Z,15.53
2022-12-29T16:56:52.192Z,15.23
2022-12-29T16:59:38.703Z,15.38
2022-12-29T17:02:17.556Z,12.95
2022-12-29T17:04:51.781Z,17.25
2022-12-29T17:07:28.067Z,23.07
2022-12-29T17:10:01.050Z,13.20
2022-12-29T17:12:36.640Z,11.53
2022-12-29T17:15:34.360Z,15.30
2022-12-29T17:18:13.962Z,12.58
2022-12-29T17:20:44.986Z,13.83
2022-12-29T17:23:26.079Z,17.20
2022-12-29T17:25:54.467Z,14.07
2022-12-29T17:28:30.395Z,15.50
2022-12-29T17:31:07.714Z,16.82
2022-12-29T17:33:43.032Z,10.93
2022-12-29T17:36:16.179Z,14.07
2022-12-29T17:38:49.027Z,19.37
2022-12-29T17:41:21.962Z,14.63
2022-12-29T17:43:55.562Z,13.40
2022-12-29T17:46:29.393Z,15.68
2022-12-29T17:49:02.597Z,13.50
2022-12-29T17:51:36.771Z,17.25
2022-12-29T17:54:25.280Z,17.10
2022-12-29T17:56:58.259Z,17.35
2022-12-29T17:59:31.194Z,22.15
2022-12-29T18:02:04.083Z,17.87
2022-12-29T18:04:37.544Z,13.70
2022-12-29T18:07:12.774Z,13.32
2022-12-29T18:09:45.670Z,13.68
2022-12-29T18:12:31.835Z,14.10
2022-12-29T18:15:04.987Z,16.67
2022-12-29T18:17:38.037Z,12.40
2022-12-29T18:20:10.820Z,14.10
2022-12-29T18:22:44.071Z,13.58
2022-12-29T18:25:30.190Z,14.30
2022-12-29T18:28:03.559Z,12.58
2022-12-29T18:30:38.239Z,16.57
2022-12-29T18:33:23.394Z,11.68
2022-12-29T18:35:58.908Z,12.78
2022-12-29T18:38:32.353Z,12.10
2022-12-29T18:41:05.166Z,11.23
2022-12-29T18:43:38.085Z,13.40
2022-12-29T18:46:11.338Z,17.10
2022-12-29T18:48:44.590Z,11.55
2022-12-29T18:51:21.240Z,10.53
2022-12-29T18:53:54.973Z,12.37
2022-12-29T18:56:28.312Z,12.00
2022-12-29T18:59:02.819Z,14.90
2022-12-29T19:01:35.667Z,12.23
2022-12-29T19:04:08.562Z,13.90
2022-12-29T19:06:41.734Z,13.28
2022-12-29T19:09:14.719Z,11.73
2022-12-29T19:11:47.778Z,15.13
2022-12-29T19:14:21.206Z,10.90
2022-12-29T19:16:54.059Z,14.83
2022-12-29T19:19:27.179Z,8.98
2022-12-29T19:21:59.882Z,11.30
2022-12-29T19:24:33.235Z,11.10
2022-12-29T19:27:06.627Z,17.60
2022-12-29T19:29:40.280Z,11.30
2022-12-29T19:32:13.554Z,8.85
2022-12-29T19:34:48.010Z,8.73
2022-12-29T19:37:20.928Z,9.65
2022-12-29T19:39:54.316Z,10.13
2022-12-29T19:42:27.227Z,13.58
2022-12-29T19:45:00.216Z,9.28
2022-12-29T19:47:33.851Z,9.30
2022-12-29T19:50:09.284Z,9.90
2022-12-29T19:52:43.158Z,10.03
2022-12-29T19:55:19.849Z,8.73
2022-12-29T19:57:53.107Z,8.75
2022-12-29T20:00:26.454Z,8.65
2022-12-29T20:02:59.509Z,9.43
2022-12-29T20:05:33.239Z,9.55
2022-12-29T20:08:06.624Z,8.83
2022-12-29T20:10:40.501Z,12.07
2022-12-29T20:13:13.783Z,11.70
2022-12-29T20:15:46.618Z,8.70
2022-12-29T20:18:25.179Z,7.53
2022-12-29T20:20:54.225Z,5.20
2022-12-29T20:23:27.110Z,9.15
2022-12-29T20:26:00.914Z,7.55
2022-12-29T20:28:34.318Z,7.95
2022-12-29T20:31:12.516Z,7.47
2022-12-29T20:33:45.391Z,6.37
2022-12-29T20:36:23.292Z,10.90
2022-12-29T20:38:59.066Z,9.78
2022-12-29T20:41:32.373Z,11.08
2022-12-29T20:46:43.566Z,9.35
2022-12-29T20:49:15.479Z,7.95
2022-12-29T20:52:05.886Z,10.35
2022-12-29T20:54:24.123Z,9.85
2022-12-29T20:56:57.190Z,12.10
2022-12-29T20:59:30.784Z,7.30
2022-12-29T21:02:04.707Z,7.42
2022-12-29T21:05:13.423Z,7.87
2022-12-29T21:07:18.030Z,10.72
2022-12-29T21:09:48.036Z,11.05
2022-12-29T21:12:21.182Z,7.15
2022-12-29T21:14:54.001Z,8.35
2022-12-29T21:17:27.022Z,8.40
2022-12-29T21:19:59.867Z,7.55
2022-12-29T21:22:34.794Z,7.83
2022-12-29T21:25:08.775Z,6.67
2022-12-29T21:27:45.041Z,9.03
2022-12-29T21:30:18.129Z,7.42
2022-12-29T21:32:51.777Z,10.40
2022-12-29T21:35:24.614Z,9.03
2022-12-29T21:37:57.404Z,7.92
2022-12-29T21:40:30.189Z,6.65
2022-12-29T21:43:03.139Z,8.13
2022-12-29T21:45:36.194Z,7.30
2022-12-29T21:48:21.814Z,7.33
2022-12-29T21:51:19.882Z,6.67
2022-12-29T21:54:00.876Z,8.20
2022-12-29T21:56:33.845Z,7.53
2022-12-29T21:59:24.716Z,7.83
2022-12-29T22:02:15.267Z,5.55
2022-12-29T22:05:06.387Z,7.40
2022-12-29T22:07:57.086Z,6.95
2022-12-29T22:11:04.307Z,8.90
2022-12-29T22:13:39.822Z,6.65
2022-12-29T22:16:15.853Z,8.15
2022-12-29T22:18:48.479Z,10.20
2022-12-29T22:21:21.580Z,5.97
2022-12-29T22:23:54.421Z,7.17
2022-12-29T22:26:27.251Z,9.95
2022-12-29T22:29:00.150Z,5.17
2022-12-29T22:31:34.200Z,7.85
2022-12-29T22:36:39.147Z,5.92
2022-12-29T22:39:12.094Z,8.90
2022-12-29T22:41:44.773Z,6.75
2022-12-29T22:44:17.697Z,7.25
2022-12-29T22:46:50.784Z,6.62
2022-12-29T22:49:23.811Z,6.97
2022-12-29T22:51:56.564Z,5.12
2022-12-29T22:54:29.300Z,9.10
2022-12-29T22:57:02.089Z,8.70
2022-12-29T22:59:35.428Z,6.90
2022-12-29T23:02:08.437Z,9.15
2022-12-29T23:07:16.362Z,8.38
2022-12-29T23:09:49.049Z,5.95
2022-12-29T23:12:22.455Z,8.80
2022-12-29T23:14:55.234Z,7.12
2022-12-29T23:20:01.204Z,6.05
2022-12-29T23:22:34.809Z,10.57
2022-12-29T23:25:07.896Z,8.38
2022-12-29T23:27:41.194Z,6.55
2022-12-29T23:30:14.187Z,6.05
2022-12-29T23:32:47.475Z,7.50
2022-12-29T23:35:20.269Z,7.20
2022-12-29T23:37:53.065Z,7.97
2022-12-29T23:40:25.907Z,6.15
2022-12-29T23:42:58.828Z,5.40
2022-12-29T23:45:31.593Z,6.08
2022-12-29T23:48:04.556Z,7.42
2022-12-29T23:50:43.078Z,6.80
2022-12-29T23:53:16.367Z,8.25
2022-12-29T23:55:53.991Z,11.05
2022-12-29T23:58:26.874Z,6.05
